createdAt,value
2023-05-08T00:01:22.418Z,0.18
2023-05-08T00:03:02.193Z,0.17
2023-05-08T00:04:42.062Z,0.19
2023-05-08T00:06:21.706Z,0.17
2023-05-08T00:08:01.496Z,0.18
2023-05-08T00:09:41.253Z,0.21
2023-05-08T00:11:21.029Z,0.21
2023-05-08T00:13:00.786Z,0.18
2023-05-08T00:14:40.568Z,0.19
2023-05-08T00:16:20.343Z,0.18
2023-05-08T00:18:00.101Z,0.18
2023-05-08T00:19:39.845Z,0.19
2023-05-08T00:21:19.671Z,0.22
2023-05-08T00:22:59.411Z,0.21
2023-05-08T00:24:39.161Z,0.17
2023-05-08T00:26:19.045Z,0.18
2023-05-08T00:27:58.684Z,0.23
2023-05-08T00:29:38.452Z,0.22
2023-05-08T00:31:18.238Z,0.22
2023-05-08T00:32:58.012Z,0.17
2023-05-08T00:34:37.760Z,0.22
2023-05-08T00:36:17.544Z,0.18
2023-05-08T00:37:57.349Z,0.19
2023-05-08T00:39:37.068Z,0.23
2023-05-08T00:41:16.859Z,0.21
2023-05-08T00:42:56.593Z,0.2
2023-05-08T00:44:36.370Z,0.21
2023-05-08T00:46:16.205Z,0.2
2023-05-08T00:47:55.925Z,0.22
2023-05-08T00:49:35.731Z,0.23
2023-05-08T00:51:15.466Z,0.2
2023-05-08T00:52:55.347Z,0.19
2023-05-08T00:54:34.978Z,0.2
2023-05-08T00:56:14.754Z,0.21
2023-05-08T00:57:54.514Z,0.21
2023-05-08T00:59:34.271Z,0.2
2023-05-08T01:01:14.038Z,0.21
2023-05-08T01:02:53.830Z,0.18
2023-05-08T01:04:33.573Z,0.18
2023-05-08T01:06:13.414Z,0.19
2023-05-08T01:07:53.104Z,0.18
2023-05-08T01:09:32.915Z,0.22
2023-05-08T01:11:12.644Z,0.19
2023-05-08T01:12:52.425Z,0.22
2023-05-08T01:14:32.238Z,0.22
2023-05-08T01:16:11.956Z,0.23
2023-05-08T01:17:51.813Z,0.23
2023-05-08T01:19:31.507Z,0.23
2023-05-08T01:21:11.349Z,0.19
2023-05-08T01:22:51.056Z,0.22
2023-05-08T01:24:30.791Z,0.23
2023-05-08T01:26:10.565Z,0.2
2023-05-08T01:27:50.329Z,0.21
2023-05-08T01:29:30.077Z,0.23
2023-05-08T01:31:09.933Z,0.19
2023-05-08T01:32:49.673Z,0.19
2023-05-08T01:34:29.397Z,0.2
2023-05-08T01:36:09.164Z,0.19
2023-05-08T01:37:49.019Z,0.2
2023-05-08T01:39:28.696Z,0.19
2023-05-08T01:41:08.482Z,0.19
2023-05-08T01:42:48.234Z,0.23
2023-05-08T01:44:27.994Z,0.22
2023-05-08T01:46:07.782Z,0.22
2023-05-08T01:47:47.529Z,0.23
2023-05-08T01:49:27.334Z,0.22
2023-05-08T01:51:07.087Z,0.2
2023-05-08T01:52:46.825Z,0.23
2023-05-08T01:54:26.601Z,0.22
2023-05-08T01:56:06.371Z,0.19
2023-05-08T01:57:46.142Z,0.2
2023-05-08T01:59:25.902Z,0.23
2023-05-08T02:01:05.675Z,0.23
2023-05-08T02:02:45.435Z,0.24
2023-05-08T02:04:25.200Z,0.25
2023-05-08T02:06:04.996Z,0.25
2023-05-08T02:07:44.734Z,0.26
2023-05-08T02:09:24.506Z,0.23
2023-05-08T02:11:04.387Z,0.26
2023-05-08T02:12:44.057Z,0.25
2023-05-08T02:14:23.806Z,0.31
2023-05-08T02:16:03.615Z,0.29
2023-05-08T02:17:43.352Z,0.33
2023-05-08T02:19:23.166Z,0.37
2023-05-08T02:21:02.949Z,0.4
2023-05-08T02:22:42.650Z,0.43
2023-05-08T02:24:22.408Z,0.47
2023-05-08T02:26:02.213Z,0.58
2023-05-08T02:27:41.952Z,0.66
2023-05-08T02:29:21.713Z,0.79
2023-05-08T02:31:01.483Z,0.9
2023-05-08T02:32:41.237Z,1.1
2023-05-08T02:34:21.021Z,1.35
2023-05-08T02:36:00.781Z,1.69
2023-05-08T02:37:40.658Z,2.05
2023-05-08T02:39:20.324Z,2.53
2023-05-08T02:41:00.091Z,3.11
2023-05-08T02:42:39.975Z,3.83
2023-05-08T02:44:19.623Z,4.69
2023-05-08T02:45:59.391Z,5.76
2023-05-08T02:47:39.161Z,6.98
2023-05-08T02:49:18.919Z,8.54
2023-05-08T02:50:58.701Z,10.39
2023-05-08T02:52:38.527Z,12.53
2023-05-08T02:54:18.372Z,15.02
2023-05-08T02:55:58.030Z,17.99
2023-05-08T02:57:37.864Z,21.35
2023-05-08T02:59:17.549Z,25.28
2023-05-08T03:00:57.444Z,29.88
2023-05-08T03:02:37.053Z,26.83
2023-05-08T03:04:16.871Z,26.86
2023-05-08T03:05:56.663Z,26.87
2023-05-08T03:07:36.352Z,26.89
2023-05-08T03:09:16.230Z,26.9
2023-05-08T03:10:55.982Z,26.9
2023-05-08T03:12:35.694Z,26.9
2023-05-08T03:14:15.439Z,26.92
2023-05-08T03:15:55.249Z,26.91
2023-05-08T03:17:34.981Z,26.92
2023-05-08T03:19:14.747Z,26.92
2023-05-08T03:20:54.506Z,26.94
2023-05-08T03:22:34.360Z,26.93
2023-05-08T03:24:14.047Z,26.94
2023-05-08T03:25:53.803Z,26.94
2023-05-08T03:27:33.611Z,26.94
2023-05-08T03:29:13.390Z,26.95
2023-05-08T03:30:53.088Z,26.96
2023-05-08T03:32:32.865Z,26.97
2023-05-08T03:34:12.727Z,26.97
2023-05-08T03:35:52.445Z,26.99
2023-05-08T03:37:32.232Z,27
2023-05-08T03:39:12.005Z,27
2023-05-08T03:40:51.754Z,27.01
2023-05-08T03:42:31.472Z,27.04
2023-05-08T03:44:11.338Z,27.04
2023-05-08T03:45:51.060Z,27.06
2023-05-08T03:47:30.980Z,27.06
2023-05-08T03:49:10.640Z,27.09
2023-05-08T03:50:50.347Z,27.11
2023-05-08T03:52:30.180Z,27.12
2023-05-08T03:54:09.883Z,27.13
2023-05-08T03:55:49.774Z,27.15
2023-05-08T03:57:29.398Z,27.16
2023-05-08T03:59:09.180Z,27.18
2023-05-08T04:00:48.958Z,27.19
2023-05-08T04:02:28.707Z,32.47
2023-05-08T04:04:08.492Z,27.23
2023-05-08T04:05:48.250Z,27.24
2023-05-08T04:07:28.017Z,27.1
2023-05-08T04:09:07.799Z,27.29
2023-05-08T04:10:47.567Z,27.3
2023-05-08T04:12:27.370Z,27.31
2023-05-08T04:14:07.183Z,27.33
2023-05-08T04:15:46.887Z,27.34
2023-05-08T04:17:26.649Z,27.36
2023-05-08T04:19:06.416Z,27.38
2023-05-08T04:20:46.198Z,27.38
2023-05-08T04:22:26.033Z,27.41
2023-05-08T04:24:05.809Z,27.42
2023-05-08T04:25:45.512Z,27.46
2023-05-08T04:27:25.382Z,27.48
2023-05-08T04:29:05.110Z,27.5
2023-05-08T04:30:44.910Z,27.52
2023-05-08T04:32:24.618Z,27.53
2023-05-08T04:34:04.404Z,27.58
2023-05-08T04:35:44.140Z,27.61
2023-05-08T04:37:23.896Z,27.65
2023-05-08T04:39:03.678Z,27.67
2023-05-08T04:40:43.554Z,27.72
2023-05-08T04:42:23.204Z,27.76
2023-05-08T04:44:03.025Z,27.81
2023-05-08T04:45:42.915Z,27.86
2023-05-08T04:47:22.533Z,27.91
2023-05-08T04:49:02.383Z,27.97
2023-05-08T04:50:42.067Z,28.04
2023-05-08T04:52:21.830Z,28.11
2023-05-08T04:54:01.613Z,28.17
2023-05-08T04:55:41.481Z,28.24
2023-05-08T04:57:21.141Z,28.32
2023-05-08T04:59:00.929Z,28.33
2023-05-08T05:00:40.683Z,28.49
2023-05-08T05:02:20.533Z,82.44
2023-05-08T05:04:00.309Z,73.92
2023-05-08T05:05:40.012Z,75.75
2023-05-08T05:07:19.783Z,76.47
2023-05-08T05:08:59.525Z,75.68
2023-05-08T05:10:39.342Z,77
2023-05-08T05:12:19.063Z,80.75
2023-05-08T05:13:58.835Z,82.23
2023-05-08T05:15:38.641Z,83.16
2023-05-08T05:17:18.380Z,83.73
2023-05-08T05:18:58.204Z,84.25
2023-05-08T05:20:38.009Z,84.58
2023-05-08T05:22:17.681Z,84.9
2023-05-08T05:23:57.459Z,85.17
2023-05-08T05:25:37.255Z,85.36
2023-05-08T05:28:56.786Z,85.69
2023-05-08T05:30:36.535Z,85.9
2023-05-08T05:32:16.383Z,85.97
2023-05-08T05:33:56.151Z,86.22
2023-05-08T05:35:35.850Z,86.35
2023-05-08T05:37:15.612Z,86.48
2023-05-08T05:38:55.411Z,86.6
2023-05-08T05:40:35.207Z,86.66
2023-05-08T05:42:14.942Z,86.69
2023-05-08T05:43:54.700Z,86.85
2023-05-08T05:45:34.479Z,86.88
2023-05-08T05:47:14.388Z,86.86
2023-05-08T05:48:54.017Z,87
2023-05-08T05:50:33.812Z,87.16
2023-05-08T05:52:13.585Z,87.12
2023-05-08T05:53:53.395Z,87.21
2023-05-08T05:55:33.115Z,87.19
2023-05-08T05:57:12.911Z,87.29
2023-05-08T05:58:52.649Z,87.24
2023-05-08T06:00:32.556Z,87.35
2023-05-08T06:02:12.258Z,87.41
2023-05-08T06:03:52.027Z,87.68
2023-05-08T06:05:31.803Z,87.69
2023-05-08T06:07:11.614Z,87.77
2023-05-08T06:08:51.340Z,87.81
2023-05-08T06:10:31.070Z,87.78
2023-05-08T06:12:10.823Z,87.74
2023-05-08T06:13:50.573Z,87.76
2023-05-08T06:15:30.402Z,87.8
2023-05-08T06:17:10.127Z,87.81
2023-05-08T06:18:49.896Z,88.1
2023-05-08T06:20:29.637Z,88.15
2023-05-08T06:22:09.459Z,88.13
2023-05-08T06:23:49.275Z,88.25
2023-05-08T06:25:29.065Z,88.26
2023-05-08T06:27:08.947Z,88.15
2023-05-08T06:28:48.508Z,88.05
2023-05-08T06:30:28.271Z,88.25
2023-05-08T06:32:08.031Z,88.51
2023-05-08T06:33:47.813Z,88.75
2023-05-08T06:35:27.601Z,88.84
2023-05-08T06:37:07.374Z,88.79
2023-05-08T06:38:47.228Z,88.66
2023-05-08T06:40:26.903Z,88.52
2023-05-08T06:42:06.655Z,88.46
2023-05-08T06:43:46.426Z,88.56
2023-05-08T06:45:26.221Z,88.64
2023-05-08T06:47:06.007Z,88.52
2023-05-08T06:48:45.763Z,88.47
2023-05-08T06:50:25.562Z,88.42
2023-05-08T06:52:05.301Z,88.3
2023-05-08T06:53:45.065Z,88.33
2023-05-08T06:55:24.853Z,88.45
2023-05-08T06:57:04.650Z,88.35
2023-05-08T06:58:44.372Z,88.39
2023-05-08T07:00:24.222Z,88.26
2023-05-08T07:02:03.922Z,87.9
2023-05-08T07:03:43.761Z,87.65
2023-05-08T07:05:23.479Z,87.63
2023-05-08T07:07:03.249Z,87.57
2023-05-08T07:08:42.987Z,87.45
2023-05-08T07:10:22.768Z,87.36
2023-05-08T07:12:02.536Z,87.25
2023-05-08T07:13:42.300Z,87.4
2023-05-08T07:15:22.166Z,87.33
2023-05-08T07:17:01.856Z,87.14
2023-05-08T07:18:41.608Z,86.99
2023-05-08T07:20:21.382Z,87.45
2023-05-08T07:22:01.161Z,87.61
2023-05-08T07:23:40.917Z,87.69
2023-05-08T07:25:20.700Z,87.56
2023-05-08T07:27:00.495Z,87.28
2023-05-08T07:28:40.307Z,87.46
2023-05-08T07:30:20.017Z,87.59
2023-05-08T07:31:59.782Z,87.53
2023-05-08T07:33:39.654Z,87.46
2023-05-08T07:35:19.346Z,87.43
2023-05-08T07:36:59.093Z,87.13
2023-05-08T07:38:38.858Z,87.12
2023-05-08T07:40:18.634Z,86.95
2023-05-08T07:41:58.400Z,86.87
2023-05-08T07:43:38.288Z,86.89
2023-05-08T07:45:17.947Z,86.87
2023-05-08T07:46:57.747Z,86.62
2023-05-08T07:48:37.485Z,86.36
2023-05-08T07:50:17.303Z,86.25
2023-05-08T07:51:57.064Z,86.42
2023-05-08T07:53:36.829Z,86.63
2023-05-08T07:55:16.564Z,87.54
2023-05-08T07:56:56.349Z,87.36
2023-05-08T07:58:36.217Z,87.05
2023-05-08T08:00:15.866Z,86.93
2023-05-08T08:01:55.641Z,86.96
2023-05-08T08:03:43.620Z,87.07
2023-05-08T08:05:15.230Z,86.87
2023-05-08T08:06:54.955Z,86.6
2023-05-08T08:08:34.712Z,86.5
2023-05-08T08:10:14.533Z,86.68
2023-05-08T08:11:54.266Z,87.4
2023-05-08T08:13:34.115Z,87.43
2023-05-08T08:15:13.808Z,87.32
2023-05-08T08:16:53.610Z,87.52
2023-05-08T08:18:33.352Z,87.38
2023-05-08T08:20:13.299Z,87.41
2023-05-08T08:21:52.877Z,87.82
2023-05-08T08:23:32.669Z,87.51
2023-05-08T08:25:12.433Z,87.44
2023-05-08T08:26:52.204Z,87.79
2023-05-08T08:28:31.962Z,88.46
2023-05-08T08:30:11.740Z,88.68
2023-05-08T08:31:51.513Z,88.3
2023-05-08T08:33:31.268Z,87.96
2023-05-08T08:35:11.095Z,87.61
2023-05-08T08:36:50.806Z,87.33
2023-05-08T08:38:30.645Z,87.17
2023-05-08T08:40:10.365Z,86.93
2023-05-08T08:41:50.317Z,86.82
2023-05-08T08:43:29.902Z,86.82
2023-05-08T08:45:09.747Z,86.75
2023-05-08T08:46:49.436Z,86.82
2023-05-08T08:48:29.209Z,86.63
2023-05-08T08:50:09.053Z,86.79
2023-05-08T08:51:48.777Z,86.93
2023-05-08T08:53:28.557Z,86.86
2023-05-08T08:55:08.426Z,86.79
2023-05-08T08:56:48.189Z,86.63
2023-05-08T08:58:27.815Z,86.38
2023-05-08T09:00:07.745Z,86.09
2023-05-08T09:01:47.428Z,85.99
2023-05-08T09:03:27.129Z,85.87
2023-05-08T09:05:06.999Z,85.6
2023-05-08T09:06:46.787Z,85.69
2023-05-08T09:08:26.444Z,86.32
2023-05-08T09:10:06.232Z,86.33
2023-05-08T09:11:46.051Z,86.44
2023-05-08T09:13:25.760Z,86.38
2023-05-08T09:15:05.610Z,86.19
2023-05-08T09:16:45.402Z,86
2023-05-08T09:18:25.066Z,85.8
2023-05-08T09:20:04.840Z,85.76
2023-05-08T09:21:44.686Z,85.77
2023-05-08T09:23:24.387Z,86.66
2023-05-08T09:25:04.186Z,87.28
2023-05-08T09:26:43.997Z,87.66
2023-05-08T09:28:23.813Z,87.82
2023-05-08T09:30:03.505Z,87.47
2023-05-08T09:31:43.238Z,87.69
2023-05-08T09:33:22.993Z,87.25
2023-05-08T09:35:02.785Z,87
2023-05-08T09:36:42.534Z,86.7
2023-05-08T09:38:22.413Z,86.56
2023-05-08T09:40:02.268Z,86.41
2023-05-08T09:41:41.974Z,86.05
2023-05-08T09:43:21.649Z,86.08
2023-05-08T09:45:01.449Z,86.35
2023-05-08T09:46:41.146Z,86
2023-05-08T09:48:21.017Z,85.98
2023-05-08T09:50:00.729Z,86.72
2023-05-08T09:51:40.481Z,87.23
2023-05-08T09:53:20.231Z,87.95
2023-05-08T09:55:00.092Z,87.91
2023-05-08T09:56:39.815Z,87.19
2023-05-08T09:58:19.628Z,86.5
2023-05-08T09:59:59.316Z,86.28
2023-05-08T10:01:39.115Z,86.54
2023-05-08T10:03:18.849Z,87.06
2023-05-08T10:04:58.700Z,87.87
2023-05-08T10:06:38.483Z,88.27
2023-05-08T10:08:18.167Z,88.19
2023-05-08T10:09:57.950Z,87.97
2023-05-08T10:11:37.759Z,87.82
2023-05-08T10:13:17.571Z,87.94
2023-05-08T10:14:57.300Z,87.7
2023-05-08T10:16:37.149Z,87.24
2023-05-08T10:18:16.798Z,86.39
2023-05-08T10:19:56.555Z,85.93
2023-05-08T10:21:36.333Z,85.44
2023-05-08T10:23:16.131Z,85.06
2023-05-08T10:24:55.883Z,86.22
2023-05-08T10:26:35.876Z,85.99
2023-05-08T10:28:15.472Z,86.85
2023-05-08T10:29:55.194Z,86.97
2023-05-08T10:31:35.067Z,87.49
2023-05-08T10:33:14.747Z,87.29
2023-05-08T10:34:54.511Z,86.59
2023-05-08T10:36:34.308Z,86.51
2023-05-08T10:38:14.148Z,86.37
2023-05-08T10:39:53.820Z,85.68
2023-05-08T10:41:33.587Z,84.93
2023-05-08T10:43:13.438Z,85.08
2023-05-08T10:44:53.132Z,84.78
2023-05-08T10:46:33.063Z,84.64
2023-05-08T10:48:12.713Z,84.68
2023-05-08T10:49:52.452Z,85.46
2023-05-08T10:51:32.218Z,86.05
2023-05-08T10:53:11.985Z,86.26
2023-05-08T10:54:51.765Z,86.63
2023-05-08T10:56:31.521Z,86.28
2023-05-08T10:58:11.293Z,86.51
2023-05-08T10:59:51.090Z,86.67
2023-05-08T11:01:30.925Z,86.6
2023-05-08T11:03:10.595Z,86.25
2023-05-08T11:04:50.457Z,86.04
2023-05-08T11:06:30.154Z,86.71
2023-05-08T11:08:09.925Z,86.6
2023-05-08T11:09:49.679Z,87.04
2023-05-08T11:11:29.609Z,87.41
2023-05-08T11:13:09.273Z,87.33
2023-05-08T11:14:48.992Z,87.36
2023-05-08T11:16:28.809Z,86.35
2023-05-08T11:18:08.556Z,86.19
2023-05-08T11:19:48.305Z,86.04
2023-05-08T11:21:28.111Z,85.76
2023-05-08T11:23:07.839Z,86.06
2023-05-08T11:24:47.621Z,86.46
2023-05-08T11:26:27.386Z,86.87
2023-05-08T11:28:07.178Z,87.15
2023-05-08T11:29:47.023Z,87.57
2023-05-08T11:31:26.687Z,87.69
2023-05-08T11:33:06.517Z,87.07
2023-05-08T11:34:46.219Z,86.66
2023-05-08T11:36:26.115Z,86.39
2023-05-08T11:38:05.808Z,86.31
2023-05-08T11:39:45.620Z,86.82
2023-05-08T11:41:25.422Z,86.71
2023-05-08T11:43:05.162Z,85.99
2023-05-08T11:44:44.865Z,85.8
2023-05-08T11:46:24.746Z,85.47
2023-05-08T11:48:04.440Z,86.62
2023-05-08T11:49:44.246Z,87.48
2023-05-08T11:51:23.965Z,87.55
2023-05-08T11:53:03.713Z,87.51
2023-05-08T11:54:43.546Z,87.33
2023-05-08T11:56:23.268Z,86.57
2023-05-08T11:58:03.020Z,86.12
2023-05-08T11:59:42.807Z,85.79
2023-05-08T12:01:22.582Z,85.65
2023-05-08T12:03:02.345Z,85.96
2023-05-08T12:04:42.129Z,85.86
2023-05-08T12:06:21.891Z,85.61
2023-05-08T12:08:01.663Z,85.47
2023-05-08T12:09:41.547Z,85.11
2023-05-08T12:11:21.191Z,84.84
2023-05-08T12:13:00.953Z,85.05
2023-05-08T12:14:40.764Z,84.65
2023-05-08T12:16:20.518Z,84.42
2023-05-08T12:18:00.285Z,84.42
2023-05-08T12:19:40.035Z,85.65
2023-05-08T12:21:19.792Z,86.56
2023-05-08T12:22:59.647Z,86.5
2023-05-08T12:24:39.454Z,86.6
2023-05-08T12:26:19.213Z,85.86
2023-05-08T12:27:58.972Z,85.41
2023-05-08T12:29:38.842Z,85.1
2023-05-08T12:31:18.436Z,84.72
2023-05-08T12:32:58.206Z,84.74
2023-05-08T12:34:38.002Z,85.64
2023-05-08T12:36:17.737Z,85.64
2023-05-08T12:37:57.510Z,86.12
2023-05-08T12:39:37.282Z,86.03
2023-05-08T12:41:17.152Z,86.76
2023-05-08T12:42:56.833Z,87.01
2023-05-08T12:44:36.621Z,86.49
2023-05-08T12:46:16.367Z,86.46
2023-05-08T12:47:56.228Z,86.55
2023-05-08T12:49:35.964Z,86.14
2023-05-08T12:51:15.804Z,86.25
2023-05-08T12:52:55.517Z,86.49
2023-05-08T12:54:35.346Z,87.07
2023-05-08T12:56:15.143Z,87.24
2023-05-08T12:57:54.782Z,86.95
2023-05-08T12:59:34.638Z,86.54
2023-05-08T13:01:14.420Z,86.4
2023-05-08T13:02:54.088Z,86.53
2023-05-08T13:04:33.835Z,86.53
2023-05-08T13:06:13.608Z,86.82
2023-05-08T13:07:53.398Z,87.06
2023-05-08T13:09:33.148Z,87.32
2023-05-08T13:11:12.921Z,87.15
2023-05-08T13:12:52.688Z,86.57
2023-05-08T13:14:32.541Z,86.1
2023-05-08T13:16:12.243Z,85.99
2023-05-08T13:17:52.052Z,85.62
2023-05-08T13:19:31.762Z,85.64
2023-05-08T13:21:11.656Z,86.46
2023-05-08T13:22:51.329Z,86.15
2023-05-08T13:24:31.091Z,85.95
2023-05-08T13:26:10.856Z,85.61
2023-05-08T13:27:50.617Z,85.48
2023-05-08T13:29:30.386Z,85.27
2023-05-08T13:31:10.221Z,85.19
2023-05-08T13:32:49.982Z,85.16
2023-05-08T13:34:29.796Z,84.97
2023-05-08T13:36:09.538Z,84.92
2023-05-08T13:37:49.337Z,84.76
2023-05-08T13:39:29.054Z,85
2023-05-08T13:41:08.801Z,85.2
2023-05-08T13:42:48.617Z,84.84
2023-05-08T13:44:28.321Z,84.84
2023-05-08T13:46:08.193Z,85.08
2023-05-08T13:47:47.983Z,85.75
2023-05-08T13:49:27.653Z,85.93
2023-05-08T13:51:07.424Z,85.35
2023-05-08T13:52:47.200Z,85.34
2023-05-08T13:54:27.023Z,85.16
2023-05-08T13:56:06.747Z,85.12
2023-05-08T13:57:46.492Z,84.79
2023-05-08T13:59:26.301Z,84.99
2023-05-08T14:01:06.036Z,85.13
2023-05-08T14:02:45.841Z,85.24
2023-05-08T14:04:25.598Z,85.21
2023-05-08T14:06:05.362Z,84.98
2023-05-08T14:07:45.201Z,84.88
2023-05-08T14:09:25.059Z,85.05
2023-05-08T14:11:04.823Z,85.43
2023-05-08T14:12:44.662Z,86.28
2023-05-08T14:14:24.367Z,86.15
2023-05-08T14:16:03.968Z,86.52
2023-05-08T14:17:43.775Z,86.77
2023-05-08T14:19:23.586Z,86.98
2023-05-08T14:21:03.288Z,87.05
2023-05-08T14:22:43.075Z,86.83
2023-05-08T14:24:22.873Z,86.6
2023-05-08T14:26:02.644Z,87
2023-05-08T14:27:42.428Z,87.28
2023-05-08T14:29:22.178Z,87.45
2023-05-08T14:31:02.055Z,87.19
2023-05-08T14:32:41.684Z,87.01
2023-05-08T14:34:21.544Z,87
2023-05-08T14:36:01.344Z,86.81
2023-05-08T14:37:40.981Z,86.18
2023-05-08T14:39:20.755Z,85.82
2023-05-08T14:41:00.524Z,85.45
2023-05-08T14:42:40.350Z,86.03
2023-05-08T14:44:20.076Z,86.59
2023-05-08T14:45:59.833Z,86.51
2023-05-08T14:47:39.598Z,86.67
2023-05-08T14:49:19.553Z,86.67
2023-05-08T14:50:59.168Z,86.44
2023-05-08T14:52:38.915Z,86.61
2023-05-08T14:54:18.682Z,87.11
2023-05-08T14:55:58.605Z,86.64
2023-05-08T14:57:38.286Z,86.11
2023-05-08T14:59:18.014Z,85.92
2023-05-08T15:00:57.960Z,85.8
2023-05-08T15:02:37.661Z,85.5
2023-05-08T15:04:17.530Z,85.39
2023-05-08T15:05:57.280Z,85.41
2023-05-08T15:07:37.011Z,85.38
2023-05-08T15:09:16.807Z,85.32
2023-05-08T15:10:56.569Z,85.28
2023-05-08T15:12:36.374Z,85.23
2023-05-08T15:14:16.106Z,85.03
2023-05-08T15:15:55.704Z,85.01
2023-05-08T15:17:35.484Z,85.05
2023-05-08T15:19:15.395Z,85.31
2023-05-08T15:20:55.178Z,85.53
2023-05-08T15:22:35.010Z,85.35
2023-05-08T15:24:14.758Z,85.07
2023-05-08T15:25:54.347Z,85.16
2023-05-08T15:27:34.278Z,85.18
2023-05-08T15:29:13.867Z,85.13
2023-05-08T15:30:53.826Z,84.72
2023-05-08T15:32:33.550Z,84.8
2023-05-08T15:34:13.341Z,84.94
2023-05-08T15:35:53.117Z,85.06
2023-05-08T15:37:32.896Z,85.6
2023-05-08T15:39:12.610Z,85.45
2023-05-08T15:40:52.349Z,85.41
2023-05-08T15:42:32.097Z,85.64
2023-05-08T15:44:11.816Z,85.36
2023-05-08T15:45:51.796Z,85.43
2023-05-08T15:47:31.554Z,85.62
2023-05-08T15:49:11.309Z,85.32
2023-05-08T15:50:50.904Z,85.42
2023-05-08T15:52:30.870Z,85.62
2023-05-08T15:54:10.576Z,85.72
2023-05-08T15:55:50.388Z,85.54
2023-05-08T15:57:30.131Z,85.4
2023-05-08T15:59:09.866Z,85.32
2023-05-08T16:00:49.729Z,85.14
2023-05-08T16:02:29.444Z,85.51
2023-05-08T16:04:09.210Z,85.53
2023-05-08T16:05:48.990Z,85.36
2023-05-08T16:07:28.591Z,85.46
2023-05-08T16:09:08.458Z,85.51
2023-05-08T16:10:48.287Z,85.42
2023-05-08T16:12:28.053Z,85.29
2023-05-08T16:14:07.691Z,85.19
2023-05-08T16:15:47.626Z,85.17
2023-05-08T16:17:27.393Z,85.22
2023-05-08T16:19:07.179Z,85.26
2023-05-08T16:20:46.864Z,85.11
2023-05-08T16:22:26.534Z,85.06
2023-05-08T16:24:06.358Z,85.35
2023-05-08T16:25:46.100Z,85.18
2023-05-08T16:27:25.972Z,84.98
2023-05-08T16:29:05.783Z,85.4
2023-05-08T16:30:45.511Z,85.37
2023-05-08T16:32:25.299Z,85.32
2023-05-08T16:34:05.062Z,85.09
2023-05-08T16:35:44.921Z,84.77
2023-05-08T16:37:24.688Z,84.91
2023-05-08T16:39:04.371Z,84.96
2023-05-08T16:40:44.159Z,85.11
2023-05-08T16:42:23.880Z,84.87
2023-05-08T16:44:03.729Z,85.15
2023-05-08T16:45:43.456Z,85.82
2023-05-08T16:47:23.275Z,86
2023-05-08T16:49:02.955Z,85.43
2023-05-08T16:50:42.784Z,85.5
2023-05-08T16:52:22.537Z,85.58
2023-05-08T16:54:02.289Z,85.37
2023-05-08T16:55:42.086Z,85.3
2023-05-08T16:57:21.704Z,85.21
2023-05-08T16:59:01.575Z,85.23
2023-05-08T17:00:41.276Z,85.17
2023-05-08T17:02:21.024Z,85.02
2023-05-08T17:04:00.808Z,84.91
2023-05-08T17:05:40.711Z,84.94
2023-05-08T17:07:20.390Z,84.83
2023-05-08T17:09:00.182Z,84.74
2023-05-08T17:10:39.919Z,84.69
2023-05-08T17:12:19.635Z,84.65
2023-05-08T17:13:59.457Z,84.54
2023-05-08T17:15:39.309Z,84.51
2023-05-08T17:17:19.000Z,84.4
2023-05-08T17:18:58.745Z,84.3
2023-05-08T17:20:38.628Z,84.29
2023-05-08T17:22:18.294Z,84.18
2023-05-08T17:23:58.024Z,84.11
2023-05-08T17:25:37.817Z,83.99
2023-05-08T17:27:17.571Z,84
2023-05-08T17:28:57.348Z,83.98
2023-05-08T17:30:37.232Z,83.92
2023-05-08T17:32:17.018Z,83.82
2023-05-08T17:33:56.665Z,83.41
2023-05-08T17:35:36.432Z,81.58
2023-05-08T17:37:16.179Z,78.83
2023-05-08T17:38:56.068Z,77.73
2023-05-08T17:40:35.835Z,77.67
2023-05-08T17:42:15.649Z,77.6
2023-05-08T17:43:55.360Z,77.56
2023-05-08T17:45:35.040Z,77.61
2023-05-08T17:47:14.821Z,77.58
2023-05-08T17:48:54.621Z,77.54
2023-05-08T17:50:34.441Z,77.42
2023-05-08T17:52:14.174Z,77.19
2023-05-08T17:53:53.927Z,77.08
2023-05-08T17:55:33.665Z,76.91
2023-05-08T17:57:13.442Z,76.74
2023-05-08T17:58:53.219Z,76.39
2023-05-08T18:00:33.041Z,75.93
2023-05-08T18:02:12.864Z,75.67
2023-05-08T18:03:52.661Z,75.32
2023-05-08T18:05:32.290Z,74.96
2023-05-08T18:07:12.168Z,74.44
2023-05-08T18:08:51.882Z,73.99
2023-05-08T18:10:31.742Z,73.5
2023-05-08T18:12:11.478Z,73.03
2023-05-08T18:13:51.238Z,72.3
2023-05-08T18:15:31.014Z,71.35
2023-05-08T18:17:10.693Z,69.61
2023-05-08T18:18:50.457Z,67.44
2023-05-08T18:20:30.236Z,63.66
2023-05-08T18:22:10.011Z,56.38
2023-05-08T18:23:49.790Z,45.34
2023-05-08T18:25:29.597Z,35.96
2023-05-08T18:27:09.320Z,34.57
2023-05-08T18:28:49.186Z,34.31
2023-05-08T18:30:28.844Z,34.18
2023-05-08T18:32:08.730Z,34.05
2023-05-08T18:33:48.376Z,32.16
2023-05-08T18:35:28.216Z,28.15
2023-05-08T18:37:07.959Z,28.1
2023-05-08T18:38:47.690Z,28.07
2023-05-08T18:40:27.452Z,28.03
2023-05-08T18:42:07.224Z,28
2023-05-08T18:43:47.071Z,27.97
2023-05-08T18:45:26.752Z,27.93
2023-05-08T18:47:06.646Z,27.89
2023-05-08T18:48:46.309Z,27.86
2023-05-08T18:50:26.067Z,31.66
2023-05-08T18:52:05.881Z,27.79
2023-05-08T18:53:45.702Z,27.75
2023-05-08T18:55:25.379Z,27.72
2023-05-08T18:57:05.167Z,27.7
2023-05-08T18:58:44.913Z,27.67
2023-05-08T19:00:24.711Z,27.61
2023-05-08T19:02:04.477Z,27.56
2023-05-08T19:03:44.182Z,27.49
2023-05-08T19:05:24.024Z,26.22
2023-05-08T19:07:03.758Z,22.46
2023-05-08T19:08:43.546Z,19
2023-05-08T19:10:23.280Z,16.02
2023-05-08T19:12:03.074Z,13.48
2023-05-08T19:13:42.835Z,11.3
2023-05-08T19:15:22.592Z,9.41
2023-05-08T19:17:02.331Z,7.77
2023-05-08T19:18:42.169Z,6.4
2023-05-08T19:20:21.868Z,5.24
2023-05-08T19:22:01.663Z,4.29
2023-05-08T19:23:41.387Z,3.51
2023-05-08T19:25:21.169Z,2.85
2023-05-08T19:27:00.932Z,2.3
2023-05-08T19:28:40.705Z,1.88
2023-05-08T19:30:20.539Z,1.53
2023-05-08T19:32:00.250Z,1.23
2023-05-08T19:33:40.010Z,1
2023-05-08T19:35:19.759Z,0.84
2023-05-08T19:36:59.570Z,0.67
2023-05-08T19:38:39.326Z,0.6
2023-05-08T19:40:19.086Z,0.52
2023-05-08T19:41:58.848Z,0.41
2023-05-08T19:43:38.599Z,0.38
2023-05-08T19:45:18.385Z,0.33
2023-05-08T19:46:58.162Z,0.32
2023-05-08T19:48:38.056Z,0.3
2023-05-08T19:50:17.680Z,0.24
2023-05-08T19:51:57.462Z,0.25
2023-05-08T19:53:37.223Z,0.21
2023-05-08T19:55:17.004Z,0.23
2023-05-08T19:56:56.801Z,0.2
2023-05-08T19:58:36.520Z,0.19
2023-05-08T20:00:16.289Z,0.21
2023-05-08T20:01:56.111Z,0.17
2023-05-08T20:03:35.904Z,0.19
2023-05-08T20:05:15.595Z,0.19
2023-05-08T20:06:55.519Z,0.17
2023-05-08T20:08:35.248Z,0.18
2023-05-08T20:10:15.043Z,0.16
2023-05-08T20:11:54.664Z,0.2
2023-05-08T20:13:34.563Z,0.18
2023-05-08T20:15:14.198Z,0.19
2023-05-08T20:16:54.053Z,0.19
2023-05-08T20:18:33.726Z,0.19
2023-05-08T20:20:13.562Z,0.19
2023-05-08T20:21:53.262Z,0.16
2023-05-08T20:23:33.032Z,0.18
2023-05-08T20:25:12.793Z,0.16
2023-05-08T20:26:52.576Z,0.17
2023-05-08T20:28:32.384Z,0.16
2023-05-08T20:30:12.277Z,0.18
2023-05-08T20:31:51.986Z,0.16
2023-05-08T20:33:31.759Z,0.17
2023-05-08T20:35:11.408Z,0.19
2023-05-08T20:36:51.235Z,0.17
2023-05-08T20:38:31.097Z,0.16
2023-05-08T20:40:10.774Z,0.17
2023-05-08T20:41:50.467Z,0.19
2023-05-08T20:43:30.401Z,0.16
2023-05-08T20:45:10.095Z,0.18
2023-05-08T20:46:49.848Z,0.19
2023-05-08T20:48:29.662Z,0.16
2023-05-08T20:50:09.437Z,0.19
2023-05-08T20:51:49.159Z,0.19
2023-05-08T20:53:29.004Z,0.17
2023-05-08T20:55:08.670Z,0.19
2023-05-08T20:56:48.369Z,0.16
2023-05-08T20:58:28.150Z,0.16
2023-05-08T21:00:07.958Z,0.16
2023-05-08T21:01:47.682Z,0.17
2023-05-08T21:03:27.521Z,0.16
2023-05-08T21:05:07.207Z,0.17
2023-05-08T21:06:47.088Z,0.17
2023-05-08T21:08:26.801Z,0.18
2023-05-08T21:10:06.534Z,0.16
2023-05-08T21:11:46.294Z,0.19
2023-05-08T21:13:26.062Z,0.17
2023-05-08T21:15:05.835Z,0.18
2023-05-08T21:16:45.599Z,0.17
2023-05-08T21:18:25.369Z,0.16
2023-05-08T21:20:05.142Z,0.18
2023-05-08T21:21:44.937Z,0.18
2023-05-08T21:23:24.670Z,0.16
2023-05-08T21:25:04.441Z,0.19
2023-05-08T21:26:44.250Z,0.14
2023-05-08T21:28:23.972Z,0.19
2023-05-08T21:30:03.721Z,0.16
2023-05-08T21:31:43.540Z,0.15
2023-05-08T21:33:23.281Z,0.17
2023-05-08T21:35:03.038Z,0.17
2023-05-08T21:36:42.845Z,0.18
2023-05-08T21:38:22.603Z,0.15
2023-05-08T21:40:02.454Z,0.16
2023-05-08T21:41:42.098Z,0.15
2023-05-08T21:43:21.887Z,0.16